createdAt,value
2023-02-19T00:00:33.888Z,10.15
2023-02-19T00:03:36.698Z,10.57
2023-02-19T00:06:38.171Z,13.23
2023-02-19T00:09:39.616Z,8.82
2023-02-19T00:12:41.058Z,10.50
2023-02-19T00:15:42.446Z,10.88
2023-02-19T00:18:44.633Z,8.90
2023-02-19T00:21:46.487Z,10.55
2023-02-19T00:24:49.336Z,8.50
2023-02-19T00:27:50.814Z,11.73
2023-02-19T00:30:52.272Z,11.07
2023-02-19T00:33:56.641Z,8.93
2023-02-19T00:36:58.136Z,9.65
2023-02-19T00:39:59.745Z,8.85
2023-02-19T00:43:01.470Z,12.60
2023-02-19T00:46:03.004Z,11.88
2023-02-19T00:49:06.484Z,11.13
2023-02-19T00:52:07.905Z,12.15
2023-02-19T00:55:09.353Z,12.25
2023-02-19T00:58:10.802Z,13.93
2023-02-19T01:01:12.679Z,10.82
2023-02-19T01:04:14.210Z,10.50
2023-02-19T01:07:15.708Z,11.77
2023-02-19T01:10:19.120Z,12.88
2023-02-19T01:13:20.610Z,10.20
2023-02-19T01:16:22.857Z,11.23
2023-02-19T01:19:25.515Z,11.30
2023-02-19T01:22:27.029Z,11.83
2023-02-19T01:25:28.509Z,10.13
2023-02-19T01:28:29.910Z,9.30
2023-02-19T01:31:31.721Z,9.23
2023-02-19T01:34:33.210Z,26.48
2023-02-19T01:37:34.673Z,26.50
2023-02-19T01:40:36.459Z,11.82
2023-02-19T01:44:13.495Z,10.68
2023-02-19T01:47:17.370Z,25.75
2023-02-19T01:50:18.883Z,13.05
2023-02-19T01:53:24.597Z,7.45
2023-02-19T01:56:27.346Z,9.27
2023-02-19T01:59:28.834Z,10.05
2023-02-19T02:02:30.330Z,8.18
2023-02-19T02:05:49.602Z,8.00
2023-02-19T02:08:53.159Z,5.80
2023-02-19T02:11:55.557Z,5.97
2023-02-19T02:14:57.249Z,12.38
2023-02-19T02:18:47.861Z,6.18
2023-02-19T02:21:58.302Z,6.35
2023-02-19T02:25:23.955Z,7.28
2023-02-19T02:28:44.095Z,8.27
2023-02-19T02:31:54.071Z,4.15
2023-02-19T02:35:08.075Z,8.25
2023-02-19T02:38:11.538Z,6.25
2023-02-19T02:41:15.258Z,9.52
2023-02-19T02:44:17.052Z,9.30
2023-02-19T02:47:18.520Z,9.40
2023-02-19T02:50:25.671Z,9.30
2023-02-19T02:53:57.528Z,6.30
2023-02-19T02:57:00.353Z,9.00
2023-02-19T03:00:04.984Z,7.82
2023-02-19T03:03:06.901Z,5.03
2023-02-19T03:06:12.377Z,5.82
2023-02-19T03:09:31.931Z,2.88
2023-02-19T03:12:37.197Z,4.85
2023-02-19T03:15:47.120Z,3.28
2023-02-19T03:18:53.784Z,7.55
2023-02-19T03:22:06.752Z,5.63
2023-02-19T03:25:12.563Z,7.15
2023-02-19T03:28:17.611Z,4.82
2023-02-19T03:31:24.423Z,5.10
2023-02-19T03:34:31.341Z,4.78
2023-02-19T03:37:44.020Z,7.20
2023-02-19T03:41:09.586Z,7.05
2023-02-19T03:44:33.407Z,7.15
2023-02-19T03:48:16.580Z,5.20
2023-02-19T03:51:18.732Z,5.40
2023-02-19T03:54:27.502Z,5.35
2023-02-19T03:57:45.267Z,5.05
2023-02-19T04:00:55.119Z,6.50
2023-02-19T04:04:25.985Z,5.80
2023-02-19T04:07:33.043Z,7.88
2023-02-19T04:10:36.228Z,8.48
2023-02-19T04:16:49.806Z,7.13
2023-02-19T04:19:53.202Z,5.07
2023-02-19T04:26:00.055Z,8.43
2023-02-19T04:29:02.041Z,6.63
2023-02-19T04:32:03.830Z,7.32
2023-02-19T04:35:05.710Z,6.32
2023-02-19T04:38:07.317Z,5.63
2023-02-19T04:41:09.948Z,7.35
2023-02-19T04:44:11.704Z,6.03
2023-02-19T04:47:13.143Z,5.07
2023-02-19T04:50:14.717Z,7.95
2023-02-19T04:53:16.140Z,5.53
2023-02-19T04:56:18.207Z,5.15
2023-02-19T04:59:19.670Z,7.03
2023-02-19T05:02:21.117Z,7.82
2023-02-19T05:05:22.566Z,3.05
2023-02-19T05:08:23.972Z,10.68
2023-02-19T05:11:25.455Z,14.30
2023-02-19T05:14:26.880Z,29.55
2023-02-19T05:17:28.315Z,10.00
2023-02-19T05:20:30.046Z,6.93
2023-02-19T05:23:31.533Z,5.13
2023-02-19T05:26:33.006Z,19.90
2023-02-19T05:29:34.483Z,15.05
2023-02-19T05:32:35.903Z,11.13
2023-02-19T05:35:45.213Z,14.88
2023-02-19T05:38:47.212Z,8.77
2023-02-19T05:41:48.621Z,10.65
2023-02-19T05:44:50.020Z,10.60
2023-02-19T05:47:51.472Z,9.32
2023-02-19T05:50:52.885Z,16.80
2023-02-19T05:53:55.859Z,11.68
2023-02-19T05:56:57.641Z,12.88
2023-02-19T05:59:59.098Z,14.45
2023-02-19T06:03:01.019Z,32.90
2023-02-19T06:06:03.694Z,24.13
2023-02-19T06:09:06.148Z,13.95
2023-02-19T06:12:07.820Z,12.50
2023-02-19T06:15:09.387Z,16.67
2023-02-19T06:18:10.774Z,12.65
2023-02-19T06:21:12.906Z,12.73
2023-02-19T06:24:14.659Z,14.57
2023-02-19T06:27:16.389Z,29.42
2023-02-19T06:30:18.059Z,38.75
2023-02-19T06:33:19.519Z,15.40
2023-02-19T06:36:21.456Z,16.38
2023-02-19T06:39:22.881Z,13.45
2023-02-19T06:42:24.313Z,14.60
2023-02-19T06:45:25.725Z,10.18
2023-02-19T06:48:28.439Z,14.93
2023-02-19T06:51:29.913Z,17.30
2023-02-19T06:54:31.372Z,13.95
2023-02-19T06:57:32.786Z,13.15
2023-02-19T07:00:34.566Z,16.52
2023-02-19T07:03:35.988Z,11.43
2023-02-19T07:06:37.590Z,16.02
2023-02-19T07:09:39.019Z,21.02
2023-02-19T07:12:40.404Z,21.25
2023-02-19T07:15:41.908Z,17.40
2023-02-19T07:18:43.331Z,13.07
2023-02-19T07:21:44.756Z,12.52
2023-02-19T07:24:47.852Z,12.80
2023-02-19T07:27:49.435Z,15.73
2023-02-19T07:30:50.979Z,17.23
2023-02-19T07:33:52.533Z,14.52
2023-02-19T07:36:53.937Z,10.65
2023-02-19T07:39:55.344Z,8.55
2023-02-19T07:42:59.222Z,24.88
2023-02-19T07:46:19.245Z,13.35
2023-02-19T07:49:20.687Z,8.90
2023-02-19T07:52:22.144Z,9.23
2023-02-19T07:55:23.555Z,7.10
2023-02-19T07:58:25.036Z,8.13
2023-02-19T08:01:26.498Z,8.30
2023-02-19T08:04:27.904Z,5.45
2023-02-19T08:07:33.680Z,10.90
2023-02-19T08:10:35.502Z,7.97
2023-02-19T08:13:36.898Z,4.82
2023-02-19T08:16:43.264Z,7.00
2023-02-19T08:19:45.471Z,4.43
2023-02-19T08:22:47.021Z,5.82
2023-02-19T08:25:50.238Z,8.05
2023-02-19T08:28:51.638Z,6.68
2023-02-19T08:31:53.090Z,4.97
2023-02-19T08:34:54.550Z,8.23
2023-02-19T08:37:57.532Z,6.43
2023-02-19T08:40:58.918Z,6.78
2023-02-19T08:44:00.323Z,6.13
2023-02-19T08:47:01.769Z,6.63
2023-02-19T08:50:03.763Z,8.70
2023-02-19T08:53:06.539Z,9.32
2023-02-19T08:56:13.096Z,8.18
2023-02-19T08:59:14.562Z,10.55
2023-02-19T09:02:16.199Z,7.50
2023-02-19T09:05:17.843Z,4.35
2023-02-19T09:08:19.305Z,8.63
2023-02-19T09:11:20.734Z,7.70
2023-02-19T09:14:22.158Z,5.55
2023-02-19T09:17:23.619Z,3.72
2023-02-19T09:20:25.041Z,3.70
2023-02-19T09:23:26.474Z,7.43
2023-02-19T09:26:27.923Z,5.07
2023-02-19T09:29:32.124Z,5.78
2023-02-19T09:32:33.665Z,7.57
2023-02-19T09:35:39.294Z,4.47
2023-02-19T09:38:40.962Z,5.72
2023-02-19T09:42:24.026Z,3.95
2023-02-19T09:45:26.662Z,7.60
2023-02-19T09:48:28.609Z,4.82
2023-02-19T09:51:32.201Z,5.70
2023-02-19T09:54:36.324Z,6.40
2023-02-19T09:57:37.894Z,6.45
2023-02-19T10:00:39.546Z,4.20
2023-02-19T10:03:45.081Z,6.28
2023-02-19T10:06:47.429Z,2.00
2023-02-19T10:09:54.857Z,5.72
2023-02-19T10:13:11.076Z,6.28
2023-02-19T10:16:17.452Z,2.95
2023-02-19T10:19:19.163Z,2.90
2023-02-19T10:22:20.958Z,5.28
2023-02-19T10:25:22.500Z,4.00
2023-02-19T10:28:28.686Z,3.67
2023-02-19T10:31:31.817Z,3.00
2023-02-19T10:34:33.264Z,3.35
2023-02-19T10:37:35.472Z,3.58
2023-02-19T10:40:44.924Z,5.18
2023-02-19T10:44:11.600Z,1.65
2023-02-19T10:47:19.328Z,5.65
2023-02-19T10:50:31.668Z,4.25
2023-02-19T10:53:47.781Z,2.58
2023-02-19T10:56:50.328Z,5.93
2023-02-19T10:59:54.584Z,9.27
2023-02-19T11:03:20.263Z,3.90
2023-02-19T11:06:26.385Z,5.50
2023-02-19T11:09:44.069Z,8.52
2023-02-19T11:12:51.424Z,3.83
2023-02-19T11:15:55.088Z,5.38
2023-02-19T11:18:57.141Z,3.17
2023-02-19T11:22:00.438Z,4.63
2023-02-19T11:25:13.924Z,5.50
2023-02-19T11:28:27.518Z,4.80
2023-02-19T11:34:31.629Z,5.28
2023-02-19T11:37:33.027Z,2.67
2023-02-19T11:40:40.909Z,4.47
2023-02-19T11:43:54.541Z,3.53
2023-02-19T11:50:27.233Z,10.98
2023-02-19T11:53:31.799Z,3.33
2023-02-19T11:56:36.893Z,3.05
2023-02-19T11:59:48.214Z,4.68
2023-02-19T12:03:11.250Z,5.78
2023-02-19T12:06:18.028Z,3.43
2023-02-19T12:09:23.901Z,7.53
2023-02-19T12:12:33.184Z,2.90
2023-02-19T12:19:13.080Z,5.63
2023-02-19T12:22:28.676Z,3.50
2023-02-19T12:25:54.208Z,3.45
2023-02-19T12:29:16.753Z,2.55
2023-02-19T12:32:59.708Z,2.63
2023-02-19T12:36:25.445Z,4.22
2023-02-19T12:39:42.944Z,2.75
2023-02-19T12:43:19.742Z,11.63
2023-02-19T12:46:29.477Z,4.57
2023-02-19T12:49:47.201Z,7.75
2023-02-19T12:52:54.630Z,4.78
2023-02-19T12:55:58.100Z,2.78
2023-02-19T12:59:26.853Z,2.65
2023-02-19T13:02:35.539Z,4.15
2023-02-19T13:05:52.055Z,4.53
2023-02-19T13:09:27.911Z,4.20
2023-02-19T13:12:34.836Z,3.78
2023-02-19T13:15:42.289Z,3.05
2023-02-19T13:18:51.229Z,4.28
2023-02-19T13:22:04.928Z,2.33
2023-02-19T13:25:08.935Z,1.48
2023-02-19T13:28:27.284Z,2.25
2023-02-19T13:32:06.479Z,3.17
2023-02-19T13:35:39.312Z,1.60
2023-02-19T13:38:46.821Z,5.88
2023-02-19T13:41:53.328Z,3.08
2023-02-19T13:44:57.935Z,3.45
2023-02-19T13:48:13.636Z,2.92
2023-02-19T13:51:17.747Z,5.43
2023-02-19T13:54:32.685Z,2.15
2023-02-19T13:57:34.131Z,8.27
2023-02-19T14:00:55.819Z,3.30
2023-02-19T14:04:20.086Z,2.00
2023-02-19T14:07:35.045Z,2.25
2023-02-19T14:10:55.165Z,1.98
2023-02-19T14:13:57.790Z,2.72
2023-02-19T14:17:22.153Z,5.40
2023-02-19T14:20:44.040Z,2.28
2023-02-19T14:23:52.703Z,3.53
2023-02-19T14:26:57.034Z,2.40
2023-02-19T14:29:58.941Z,4.78
2023-02-19T14:33:10.628Z,3.25
2023-02-19T14:36:37.226Z,3.85
2023-02-19T14:39:38.844Z,3.53
2023-02-19T14:42:41.399Z,4.63
2023-02-19T14:45:47.549Z,4.13
2023-02-19T14:48:50.237Z,2.03
2023-02-19T14:51:56.675Z,4.40
2023-02-19T14:55:20.249Z,3.22
2023-02-19T14:58:28.393Z,3.00
2023-02-19T15:01:29.778Z,3.15
2023-02-19T15:04:37.226Z,5.28
2023-02-19T15:07:38.837Z,5.03
2023-02-19T15:10:42.881Z,3.15
2023-02-19T15:13:50.839Z,1.83
2023-02-19T15:16:58.596Z,2.58
2023-02-19T15:20:04.865Z,3.05
2023-02-19T15:23:07.620Z,4.57
2023-02-19T15:26:22.190Z,6.80
2023-02-19T15:29:25.930Z,8.48
2023-02-19T15:32:27.860Z,4.65
2023-02-19T15:35:30.704Z,2.92
2023-02-19T15:38:32.451Z,9.55
2023-02-19T15:41:34.848Z,10.48
2023-02-19T15:44:42.912Z,52.45
2023-02-19T15:47:54.987Z,19.92
2023-02-19T15:51:04.500Z,20.67
2023-02-19T15:54:18.211Z,8.60
2023-02-19T15:57:24.199Z,3.20
2023-02-19T16:00:51.343Z,2.30
2023-02-19T16:03:53.782Z,3.78
2023-02-19T16:07:00.424Z,2.60
2023-02-19T16:10:25.139Z,2.33
2023-02-19T16:13:29.323Z,7.22
2023-02-19T16:16:38.299Z,3.47
2023-02-19T16:19:42.682Z,2.70
2023-02-19T16:22:44.132Z,3.95
2023-02-19T16:25:46.831Z,4.68
2023-02-19T16:28:52.987Z,6.47
2023-02-19T16:31:57.899Z,3.25
2023-02-19T16:34:59.418Z,4.30
2023-02-19T16:38:00.846Z,3.35
2023-02-19T16:41:12.247Z,5.40
2023-02-19T16:44:26.035Z,6.40
2023-02-19T16:50:40.007Z,8.15
2023-02-19T16:53:41.424Z,4.65
2023-02-19T16:56:42.872Z,3.20
2023-02-19T16:59:44.316Z,4.70
2023-02-19T17:02:47.917Z,6.00
2023-02-19T17:05:49.974Z,7.10
2023-02-19T17:08:51.356Z,6.43
2023-02-19T17:11:52.902Z,5.05
2023-02-19T17:14:54.273Z,3.50
2023-02-19T17:17:55.691Z,3.35
2023-02-19T17:21:10.619Z,1.85
2023-02-19T17:24:12.878Z,7.25
2023-02-19T17:27:14.566Z,6.68
2023-02-19T17:30:26.768Z,2.92
2023-02-19T17:33:28.231Z,4.78
2023-02-19T17:36:31.638Z,6.45
2023-02-19T17:42:34.369Z,4.07
2023-02-19T17:45:35.866Z,7.63
2023-02-19T17:48:37.301Z,6.68
2023-02-19T17:51:38.938Z,6.38
2023-02-19T17:54:40.383Z,2.85
2023-02-19T17:57:41.820Z,4.20
2023-02-19T18:00:43.249Z,5.97
2023-02-19T18:03:44.746Z,5.22
2023-02-19T18:06:46.241Z,6.55
2023-02-19T18:09:47.699Z,3.95
2023-02-19T18:12:49.649Z,5.50
2023-02-19T18:15:51.082Z,3.83
2023-02-19T18:18:52.491Z,5.78
2023-02-19T18:21:53.977Z,3.30
2023-02-19T18:24:55.491Z,7.28
2023-02-19T18:27:59.384Z,6.63
2023-02-19T18:31:01.157Z,5.95
2023-02-19T18:34:03.376Z,5.25
2023-02-19T18:37:04.877Z,4.25
2023-02-19T18:40:07.208Z,3.17
2023-02-19T18:43:08.627Z,6.45
2023-02-19T18:46:11.286Z,6.85
2023-02-19T18:49:12.817Z,4.53
2023-02-19T18:52:14.871Z,3.63
2023-02-19T18:55:16.429Z,6.30
2023-02-19T18:58:17.954Z,4.65
2023-02-19T19:01:19.490Z,3.40
2023-02-19T19:04:21.273Z,5.88
2023-02-19T19:07:22.772Z,3.60
2023-02-19T19:10:24.258Z,5.07
2023-02-19T19:13:25.664Z,8.13
2023-02-19T19:16:28.986Z,2.38
2023-02-19T19:19:30.398Z,3.90
2023-02-19T19:22:31.806Z,7.30
2023-02-19T19:25:33.277Z,4.25
2023-02-19T19:28:34.760Z,6.10
2023-02-19T19:31:36.665Z,7.00
2023-02-19T19:34:38.188Z,7.43
2023-02-19T19:37:39.603Z,6.53
2023-02-19T19:40:41.052Z,5.13
2023-02-19T19:43:42.492Z,9.15
2023-02-19T19:46:45.006Z,9.15
2023-02-19T19:49:46.805Z,8.43
2023-02-19T19:52:48.204Z,10.10
2023-02-19T19:55:49.728Z,12.98
2023-02-19T19:58:51.173Z,10.45
2023-02-19T20:01:55.657Z,17.92
2023-02-19T20:04:57.422Z,13.18
2023-02-19T20:07:58.942Z,12.43
2023-02-19T20:11:00.356Z,13.98
2023-02-19T20:14:01.784Z,6.78
2023-02-19T20:17:03.254Z,8.73
2023-02-19T20:20:05.716Z,8.52
2023-02-19T20:23:07.206Z,15.93
2023-02-19T20:26:08.643Z,28.95
2023-02-19T20:29:10.253Z,15.38
2023-02-19T20:32:13.037Z,10.95
2023-02-19T20:35:16.076Z,11.52
2023-02-19T20:38:18.014Z,9.98
2023-02-19T20:41:19.589Z,10.30
2023-02-19T20:44:21.037Z,7.35
2023-02-19T20:47:22.620Z,11.98
2023-02-19T20:50:24.038Z,8.00
2023-02-19T20:53:27.096Z,5.97
2023-02-19T20:56:28.465Z,8.10
2023-02-19T20:59:32.321Z,13.23
2023-02-19T21:02:34.167Z,8.82
2023-02-19T21:05:35.600Z,8.40
2023-02-19T21:08:37.070Z,7.18
2023-02-19T21:11:38.474Z,4.57
2023-02-19T21:14:40.302Z,5.70
2023-02-19T21:17:45.134Z,7.78
2023-02-19T21:20:46.539Z,6.20
2023-02-19T21:23:47.940Z,9.60
2023-02-19T21:26:49.375Z,6.20
2023-02-19T21:29:50.921Z,7.20
2023-02-19T21:32:52.310Z,6.70
2023-02-19T21:35:53.745Z,7.18
2023-02-19T21:38:55.122Z,14.50
2023-02-19T21:41:56.588Z,14.38
2023-02-19T21:44:57.981Z,11.43
2023-02-19T21:47:59.360Z,15.57
2023-02-19T21:51:00.728Z,8.90
2023-02-19T21:54:02.759Z,7.70
2023-02-19T21:57:04.260Z,7.00
2023-02-19T22:00:06.917Z,8.57
2023-02-19T22:03:15.089Z,6.77
2023-02-19T22:06:17.306Z,8.85
2023-02-19T22:09:20.029Z,11.48
2023-02-19T22:12:21.511Z,10.82
2023-02-19T22:15:22.892Z,9.15
2023-02-19T22:18:24.317Z,8.13
2023-02-19T22:21:29.015Z,6.60
2023-02-19T22:24:30.420Z,7.68
2023-02-19T22:27:31.810Z,6.50
2023-02-19T22:30:33.608Z,5.95
2023-02-19T22:33:35.222Z,4.10
2023-02-19T22:36:36.621Z,7.22
2023-02-19T22:39:38.056Z,5.50
2023-02-19T22:42:39.470Z,4.78
2023-02-19T22:45:40.942Z,6.72
2023-02-19T22:48:42.357Z,2.95
2023-02-19T22:51:49.494Z,4.68
2023-02-19T22:54:52.409Z,7.43
2023-02-19T22:57:53.814Z,4.80
2023-02-19T23:00:55.222Z,4.90
2023-02-19T23:03:58.913Z,4.35
2023-02-19T23:10:01.732Z,6.85
2023-02-19T23:13:03.160Z,10.27
2023-02-19T23:16:04.726Z,5.53
2023-02-19T23:19:07.937Z,7.00
2023-02-19T23:22:09.393Z,8.63
2023-02-19T23:25:10.806Z,8.48
2023-02-19T23:28:12.233Z,4.97
2023-02-19T23:31:14.743Z,26.92
2023-02-19T23:34:17.148Z,20.37
2023-02-19T23:37:18.539Z,16.60
2023-02-19T23:40:19.925Z,10.30
2023-02-19T23:43:21.428Z,8.75
2023-02-19T23:46:22.881Z,8.63
2023-02-19T23:49:24.293Z,8.73
2023-02-19T23:52:25.686Z,5.85
2023-02-19T23:55:27.192Z,7.05
2023-02-19T23:58:28.570Z,4.28
